Terminal Aerodrome Forecast
Issued by NWS

Current Version | Previous Version | Text Only | Print | Product List | Glossary On
Versions: 1 2 3 4 5 6 7 8 9 10 11 12 13
000
FTUS41 KPHI 221600 AAA
TAFMIV
TAF AMD
KMIV 221624Z 2216/2312 22010KT P6SM SCT250
     FM221800 22012G20KT P6SM SCT200
     FM222200 21005KT P6SM FEW080=

USA.gov is the U.S. government's official web portal to all federal, state and local government web resources and services.